<?xml version="1.0" encoding="UTF-8" standalone="no" ?>
<gpx xmlns="http://www.topografix.com/GPX/1/1" xmlns:xsi="http://www.w3.org/2001/XMLSchema-instance" xsi:schemaLocation="http://www.topografix.com/GPX/1/1 http://www.topografix.com/GPX/1/1/gpx.xsd" version="1.1" creator="VisuGPX - https://www.visugpx.com">
  <metadata>
    <name>Petite balade dans le Erbsenthal</name>
    <desc><![CDATA[Départ du parking à proximité de l?étang de Glasbronn, en bordure de la route forestière de l?Erbsenthal. Voir le blockhaus de la Ligne Maginot en face du parking. Prendre à gauche la route forestière du Moosbach sur 75 m puis, au petit parking, tourner à droite sur le chemin forestier. À une centaine de mètre il y a une petite paroi rocheuse à gauche. Petite grimpette de 4 mètres sur sentier pour aller voir les gravures du Erbsenthal. Reprendre le chemin forestier et prendre le premier chemin à gauche. Au carrefour suivant, à 500 m, prendre le chemin qui monte légèrement, direction Sud. À 300 m de là, vous rencontrez le chemin balisé rectangle jaune. Descendre à droite vers la grotte préhistorique de l?Erbsenthal. Continuer la descente jusqu?à la digue de l?étang de Erbsenweiher, belle vue vers le Biesenberg. Aller à la chapelle Notre Dame des Bois à 150 m. Revenir à l?étang et le longer sur rive droite. Arrivé sur la route forestière de l?Erbsenthal continuer tout droit jusqu?au parking de Glasbronn.
Cette courte balade est entièrement en zone Natura 2000 avec des sites naturels de l'Union européenne ayant une grande valeur patrimoniale, par la faune et la flore exceptionnelles qu'ils contiennent.
D?autres infos sur :
http://www.clubvosgienbitche.fr/topoguide-balades-pays-bitche.html
]]></desc>
  </metadata>
  <trk>
    <name><![CDATA[Tracé 6 juil. 2020 10:25:38]]></name>
    <trkseg>
      <trkpt lat="49.03902" lon="7.5504">
        <ele>263.87083300423</ele>
        <time>2020-07-06T08:25:38Z</time>
      </trkpt>
      <trkpt lat="49.03894" lon="7.55045">
        <ele>260.88863401026</ele>
        <time>2020-07-06T08:25:49Z</time>
      </trkpt>
      <trkpt lat="49.03889" lon="7.55057">
        <ele>259.09780691464</ele>
        <time>2020-07-06T08:25:58Z</time>
      </trkpt>
      <trkpt lat="49.03883" lon="7.55066">
        <ele>259.36159620615</ele>
        <time>2020-07-06T08:26:08Z</time>
      </trkpt>
      <trkpt lat="49.03876" lon="7.55073">
        <ele>259.94835820761</ele>
        <time>2020-07-06T08:26:42Z</time>
      </trkpt>
      <trkpt lat="49.0387" lon="7.5508">
        <ele>257.77136357454</ele>
        <time>2020-07-06T08:26:54Z</time>
      </trkpt>
      <trkpt lat="49.03866" lon="7.55091">
        <ele>255.13046122824</ele>
        <time>2020-07-06T08:27:03Z</time>
      </trkpt>
      <trkpt lat="49.0386" lon="7.55101">
        <ele>256.07310380652</ele>
        <time>2020-07-06T08:27:12Z</time>
      </trkpt>
      <trkpt lat="49.03854" lon="7.5511">
        <ele>257.34086137041</ele>
        <time>2020-07-06T08:27:19Z</time>
      </trkpt>
      <trkpt lat="49.03848" lon="7.55119">
        <ele>258.71237252712</ele>
        <time>2020-07-06T08:27:26Z</time>
      </trkpt>
      <trkpt lat="49.03843" lon="7.5513">
        <ele>261.52386261155</ele>
        <time>2020-07-06T08:27:33Z</time>
      </trkpt>
      <trkpt lat="49.03837" lon="7.55139">
        <ele>259.81604359828</ele>
        <time>2020-07-06T08:27:41Z</time>
      </trkpt>
      <trkpt lat="49.03833" lon="7.5515">
        <ele>259.89378919191</ele>
        <time>2020-07-06T08:27:49Z</time>
      </trkpt>
      <trkpt lat="49.03835" lon="7.55164">
        <ele>263.06694744078</ele>
        <time>2020-07-06T08:27:58Z</time>
      </trkpt>
      <trkpt lat="49.0384" lon="7.55174">
        <ele>261.02448494629</ele>
        <time>2020-07-06T08:28:09Z</time>
      </trkpt>
      <trkpt lat="49.03845" lon="7.55185">
        <ele>257.10750502952</ele>
        <time>2020-07-06T08:28:19Z</time>
      </trkpt>
      <trkpt lat="49.03849" lon="7.55197">
        <ele>256.40970505126</ele>
        <time>2020-07-06T08:28:27Z</time>
      </trkpt>
      <trkpt lat="49.03853" lon="7.55208">
        <ele>257.06724690505</ele>
        <time>2020-07-06T08:28:34Z</time>
      </trkpt>
      <trkpt lat="49.03858" lon="7.55218">
        <ele>258.75218789627</ele>
        <time>2020-07-06T08:28:43Z</time>
      </trkpt>
      <trkpt lat="49.03859" lon="7.55231">
        <ele>257.96697785557</ele>
        <time>2020-07-06T08:28:55Z</time>
      </trkpt>
      <trkpt lat="49.03855" lon="7.55242">
        <ele>259.38411834455</ele>
        <time>2020-07-06T08:29:04Z</time>
      </trkpt>
      <trkpt lat="49.03847" lon="7.55249">
        <ele>258.93558450142</ele>
        <time>2020-07-06T08:29:12Z</time>
      </trkpt>
      <trkpt lat="49.03839" lon="7.55253">
        <ele>257.75450235953</ele>
        <time>2020-07-06T08:29:21Z</time>
      </trkpt>
      <trkpt lat="49.03831" lon="7.55255">
        <ele>259.32983616621</ele>
        <time>2020-07-06T08:29:30Z</time>
      </trkpt>
      <trkpt lat="49.03822" lon="7.55258">
        <ele>262.72406832889</ele>
        <time>2020-07-06T08:29:43Z</time>
      </trkpt>
      <trkpt lat="49.03815" lon="7.55262">
        <ele>263.97121676331</ele>
        <time>2020-07-06T08:29:52Z</time>
      </trkpt>
      <trkpt lat="49.03808" lon="7.55267">
        <ele>258.95082421513</ele>
        <time>2020-07-06T08:30:01Z</time>
      </trkpt>
      <trkpt lat="49.038" lon="7.55273">
        <ele>255.55128722684</ele>
        <time>2020-07-06T08:30:11Z</time>
      </trkpt>
      <trkpt lat="49.03793" lon="7.55281">
        <ele>258.26804874491</ele>
        <time>2020-07-06T08:32:51Z</time>
      </trkpt>
      <trkpt lat="49.03786" lon="7.55289">
        <ele>258.12921791792</ele>
        <time>2020-07-06T08:32:59Z</time>
      </trkpt>
      <trkpt lat="49.03782" lon="7.553">
        <ele>256.54820814563</ele>
        <time>2020-07-06T08:33:10Z</time>
      </trkpt>
      <trkpt lat="49.03778" lon="7.55311">
        <ele>257.65043632833</ele>
        <time>2020-07-06T08:33:37Z</time>
      </trkpt>
      <trkpt lat="49.03782" lon="7.55324">
        <ele>257.93573369234</ele>
        <time>2020-07-06T08:33:55Z</time>
      </trkpt>
      <trkpt lat="49.03774" lon="7.55325">
        <ele>256.98041671544</ele>
        <time>2020-07-06T08:36:25Z</time>
      </trkpt>
      <trkpt lat="49.03768" lon="7.55336">
        <ele>256.2405761385</ele>
        <time>2020-07-06T08:36:36Z</time>
      </trkpt>
      <trkpt lat="49.03767" lon="7.55348">
        <ele>253.65026197157</ele>
        <time>2020-07-06T08:36:49Z</time>
      </trkpt>
      <trkpt lat="49.03764" lon="7.5536">
        <ele>253.73467507587</ele>
        <time>2020-07-06T08:36:58Z</time>
      </trkpt>
      <trkpt lat="49.03762" lon="7.55372">
        <ele>253.76873256801</ele>
        <time>2020-07-06T08:37:07Z</time>
      </trkpt>
      <trkpt lat="49.03761" lon="7.55386">
        <ele>251.94449452137</ele>
        <time>2020-07-06T08:37:19Z</time>
      </trkpt>
      <trkpt lat="49.03759" lon="7.55399">
        <ele>251.66773018139</ele>
        <time>2020-07-06T08:37:29Z</time>
      </trkpt>
      <trkpt lat="49.03757" lon="7.55412">
        <ele>252.61869076128</ele>
        <time>2020-07-06T08:37:37Z</time>
      </trkpt>
      <trkpt lat="49.03755" lon="7.55424">
        <ele>253.72160057426</ele>
        <time>2020-07-06T08:37:47Z</time>
      </trkpt>
      <trkpt lat="49.03754" lon="7.55437">
        <ele>256.98561588366</ele>
        <time>2020-07-06T08:38:00Z</time>
      </trkpt>
      <trkpt lat="49.03754" lon="7.5545">
        <ele>256.0914523093</ele>
        <time>2020-07-06T08:38:09Z</time>
      </trkpt>
      <trkpt lat="49.03758" lon="7.55461">
        <ele>255.40260174682</ele>
        <time>2020-07-06T08:38:21Z</time>
      </trkpt>
      <trkpt lat="49.03762" lon="7.55472">
        <ele>254.10239523885</ele>
        <time>2020-07-06T08:38:31Z</time>
      </trkpt>
      <trkpt lat="49.03765" lon="7.55485">
        <ele>256.34601855736</ele>
        <time>2020-07-06T08:38:42Z</time>
      </trkpt>
      <trkpt lat="49.03769" lon="7.55497">
        <ele>253.08924626952</ele>
        <time>2020-07-06T08:38:55Z</time>
      </trkpt>
      <trkpt lat="49.03771" lon="7.5551">
        <ele>253.04340410967</ele>
        <time>2020-07-06T08:39:06Z</time>
      </trkpt>
      <trkpt lat="49.03773" lon="7.55522">
        <ele>253.40306660609</ele>
        <time>2020-07-06T08:39:15Z</time>
      </trkpt>
      <trkpt lat="49.03773" lon="7.55535">
        <ele>253.60924496908</ele>
        <time>2020-07-06T08:40:12Z</time>
      </trkpt>
      <trkpt lat="49.03775" lon="7.55548">
        <ele>254.45574583866</ele>
        <time>2020-07-06T08:40:25Z</time>
      </trkpt>
      <trkpt lat="49.03777" lon="7.5556">
        <ele>252.57942702766</ele>
        <time>2020-07-06T08:40:40Z</time>
      </trkpt>
      <trkpt lat="49.03779" lon="7.55573">
        <ele>254.43786309691</ele>
        <time>2020-07-06T08:40:49Z</time>
      </trkpt>
      <trkpt lat="49.03782" lon="7.55584">
        <ele>256.83873198225</ele>
        <time>2020-07-06T08:40:57Z</time>
      </trkpt>
      <trkpt lat="49.03786" lon="7.55595">
        <ele>258.88840493616</ele>
        <time>2020-07-06T08:41:08Z</time>
      </trkpt>
      <trkpt lat="49.03785" lon="7.55609">
        <ele>257.89356400393</ele>
        <time>2020-07-06T08:41:18Z</time>
      </trkpt>
      <trkpt lat="49.0379" lon="7.55619">
        <ele>252.52639261058</ele>
        <time>2020-07-06T08:41:32Z</time>
      </trkpt>
      <trkpt lat="49.03793" lon="7.55631">
        <ele>252.04545218032</ele>
        <time>2020-07-06T08:41:42Z</time>
      </trkpt>
      <trkpt lat="49.03796" lon="7.55644">
        <ele>252.06225919333</ele>
        <time>2020-07-06T08:43:00Z</time>
      </trkpt>
      <trkpt lat="49.038" lon="7.55655">
        <ele>255.65886230292</ele>
        <time>2020-07-06T08:44:03Z</time>
      </trkpt>
      <trkpt lat="49.03807" lon="7.55658">
        <ele>254.65475034955</ele>
        <time>2020-07-06T08:44:11Z</time>
      </trkpt>
      <trkpt lat="49.03813" lon="7.55669">
        <ele>256.51473291711</ele>
        <time>2020-07-06T08:44:22Z</time>
      </trkpt>
      <trkpt lat="49.0382" lon="7.55676">
        <ele>256.31820304453</ele>
        <time>2020-07-06T08:44:32Z</time>
      </trkpt>
      <trkpt lat="49.03826" lon="7.55686">
        <ele>256.62867666948</ele>
        <time>2020-07-06T08:44:44Z</time>
      </trkpt>
      <trkpt lat="49.03833" lon="7.55693">
        <ele>259.0599415412</ele>
        <time>2020-07-06T08:44:55Z</time>
      </trkpt>
      <trkpt lat="49.03839" lon="7.55701">
        <ele>259.32546669061</ele>
        <time>2020-07-06T08:45:15Z</time>
      </trkpt>
      <trkpt lat="49.03846" lon="7.55709">
        <ele>258.80639543166</ele>
        <time>2020-07-06T08:45:29Z</time>
      </trkpt>
      <trkpt lat="49.03853" lon="7.55718">
        <ele>258.29265928532</ele>
        <time>2020-07-06T08:45:42Z</time>
      </trkpt>
      <trkpt lat="49.03859" lon="7.55728">
        <ele>259.69845282732</ele>
        <time>2020-07-06T08:45:55Z</time>
      </trkpt>
      <trkpt lat="49.03865" lon="7.55737">
        <ele>259.37441471678</ele>
        <time>2020-07-06T08:46:10Z</time>
      </trkpt>
      <trkpt lat="49.03873" lon="7.55742">
        <ele>258.4617945182</ele>
        <time>2020-07-06T08:46:26Z</time>
      </trkpt>
      <trkpt lat="49.03879" lon="7.5575">
        <ele>256.73434822401</ele>
        <time>2020-07-06T08:46:36Z</time>
      </trkpt>
      <trkpt lat="49.03886" lon="7.55757">
        <ele>260.53945565482</ele>
        <time>2020-07-06T08:46:44Z</time>
      </trkpt>
      <trkpt lat="49.03891" lon="7.55767">
        <ele>264.45919079682</ele>
        <time>2020-07-06T08:46:55Z</time>
      </trkpt>
      <trkpt lat="49.03896" lon="7.55777">
        <ele>260.49108755641</ele>
        <time>2020-07-06T08:47:04Z</time>
      </trkpt>
      <trkpt lat="49.03898" lon="7.5579">
        <ele>261.00297680356</ele>
        <time>2020-07-06T08:47:28Z</time>
      </trkpt>
      <trkpt lat="49.03903" lon="7.558">
        <ele>260.91464723292</ele>
        <time>2020-07-06T08:47:50Z</time>
      </trkpt>
      <trkpt lat="49.03911" lon="7.55806">
        <ele>262.37364894273</ele>
        <time>2020-07-06T08:48:03Z</time>
      </trkpt>
      <trkpt lat="49.03917" lon="7.55816">
        <ele>261.17171753898</ele>
        <time>2020-07-06T08:48:12Z</time>
      </trkpt>
      <trkpt lat="49.03922" lon="7.55825">
        <ele>261.54460191128</ele>
        <time>2020-07-06T08:48:27Z</time>
      </trkpt>
      <trkpt lat="49.03926" lon="7.55838">
        <ele>265.44946536871</ele>
        <time>2020-07-06T08:48:41Z</time>
      </trkpt>
      <trkpt lat="49.03931" lon="7.55849">
        <ele>267.58968637489</ele>
        <time>2020-07-06T08:48:52Z</time>
      </trkpt>
      <trkpt lat="49.03935" lon="7.5586">
        <ele>270.1099799305</ele>
        <time>2020-07-06T08:49:01Z</time>
      </trkpt>
      <trkpt lat="49.03942" lon="7.55868">
        <ele>272.38611242055</ele>
        <time>2020-07-06T08:49:12Z</time>
      </trkpt>
      <trkpt lat="49.03948" lon="7.55877">
        <ele>272.39851836725</ele>
        <time>2020-07-06T08:49:24Z</time>
      </trkpt>
      <trkpt lat="49.03954" lon="7.55887">
        <ele>271.75981735774</ele>
        <time>2020-07-06T08:49:34Z</time>
      </trkpt>
      <trkpt lat="49.03959" lon="7.55897">
        <ele>271.06023083023</ele>
        <time>2020-07-06T08:49:41Z</time>
      </trkpt>
      <trkpt lat="49.03966" lon="7.55905">
        <ele>269.81066196673</ele>
        <time>2020-07-06T08:49:53Z</time>
      </trkpt>
      <trkpt lat="49.03972" lon="7.55915">
        <ele>263.68142370066</ele>
        <time>2020-07-06T08:50:14Z</time>
      </trkpt>
      <trkpt lat="49.0397" lon="7.55928">
        <ele>265.65112339194</ele>
        <time>2020-07-06T08:52:05Z</time>
      </trkpt>
      <trkpt lat="49.0397" lon="7.5594">
        <ele>266.17607037665</ele>
        <time>2020-07-06T08:52:14Z</time>
      </trkpt>
      <trkpt lat="49.0397" lon="7.55953">
        <ele>266.71033030545</ele>
        <time>2020-07-06T08:52:24Z</time>
      </trkpt>
      <trkpt lat="49.03971" lon="7.55967">
        <ele>266.55524076965</ele>
        <time>2020-07-06T08:52:37Z</time>
      </trkpt>
      <trkpt lat="49.03969" lon="7.55978">
        <ele>263.81548392037</ele>
        <time>2020-07-06T08:52:50Z</time>
      </trkpt>
      <trkpt lat="49.03969" lon="7.5599">
        <ele>263.85586837349</ele>
        <time>2020-07-06T08:52:57Z</time>
      </trkpt>
      <trkpt lat="49.0397" lon="7.56004">
        <ele>261.02683515448</ele>
        <time>2020-07-06T08:53:09Z</time>
      </trkpt>
      <trkpt lat="49.03967" lon="7.56015">
        <ele>261.75892932361</ele>
        <time>2020-07-06T08:53:19Z</time>
      </trkpt>
      <trkpt lat="49.03963" lon="7.56027">
        <ele>262.86642249549</ele>
        <time>2020-07-06T08:53:37Z</time>
      </trkpt>
      <trkpt lat="49.03954" lon="7.56028">
        <ele>269.84750823092</ele>
        <time>2020-07-06T08:54:10Z</time>
      </trkpt>
      <trkpt lat="49.03946" lon="7.56026">
        <ele>265.40848590122</ele>
        <time>2020-07-06T08:54:26Z</time>
      </trkpt>
      <trkpt lat="49.03937" lon="7.56025">
        <ele>263.83768435833</ele>
        <time>2020-07-06T08:54:40Z</time>
      </trkpt>
      <trkpt lat="49.03929" lon="7.56025">
        <ele>263.50343132706</ele>
        <time>2020-07-06T08:54:49Z</time>
      </trkpt>
      <trkpt lat="49.0392" lon="7.56025">
        <ele>265.74276860271</ele>
        <time>2020-07-06T08:54:59Z</time>
      </trkpt>
      <trkpt lat="49.03911" lon="7.56024">
        <ele>266.21003322496</ele>
        <time>2020-07-06T08:55:09Z</time>
      </trkpt>
      <trkpt lat="49.03903" lon="7.5602">
        <ele>265.61566843455</ele>
        <time>2020-07-06T08:55:21Z</time>
      </trkpt>
      <trkpt lat="49.03895" lon="7.56019">
        <ele>265.19525958453</ele>
        <time>2020-07-06T08:55:32Z</time>
      </trkpt>
      <trkpt lat="49.03886" lon="7.56018">
        <ele>265.29349662485</ele>
        <time>2020-07-06T08:55:46Z</time>
      </trkpt>
      <trkpt lat="49.03877" lon="7.56017">
        <ele>262.92288387372</ele>
        <time>2020-07-06T08:55:57Z</time>
      </trkpt>
      <trkpt lat="49.03869" lon="7.56017">
        <ele>264.76384812555</ele>
        <time>2020-07-06T08:56:09Z</time>
      </trkpt>
      <trkpt lat="49.03861" lon="7.56015">
        <ele>264.08526697693</ele>
        <time>2020-07-06T08:56:18Z</time>
      </trkpt>
      <trkpt lat="49.03852" lon="7.56016">
        <ele>267.41198458962</ele>
        <time>2020-07-06T08:56:27Z</time>
      </trkpt>
      <trkpt lat="49.03843" lon="7.56015">
        <ele>268.76097969263</ele>
        <time>2020-07-06T08:56:37Z</time>
      </trkpt>
      <trkpt lat="49.03834" lon="7.56013">
        <ele>272.37246839133</ele>
        <time>2020-07-06T08:56:49Z</time>
      </trkpt>
      <trkpt lat="49.03825" lon="7.56015">
        <ele>275.59172180808</ele>
        <time>2020-07-06T08:57:02Z</time>
      </trkpt>
      <trkpt lat="49.03817" lon="7.56016">
        <ele>276.2615205001</ele>
        <time>2020-07-06T08:57:12Z</time>
      </trkpt>
      <trkpt lat="49.03808" lon="7.56017">
        <ele>278.11045249293</ele>
        <time>2020-07-06T08:57:25Z</time>
      </trkpt>
      <trkpt lat="49.03799" lon="7.56016">
        <ele>278.66648562587</ele>
        <time>2020-07-06T08:57:36Z</time>
      </trkpt>
      <trkpt lat="49.0379" lon="7.56016">
        <ele>278.97891988468</ele>
        <time>2020-07-06T08:57:51Z</time>
      </trkpt>
      <trkpt lat="49.03782" lon="7.56014">
        <ele>277.12031226943</ele>
        <time>2020-07-06T08:58:03Z</time>
      </trkpt>
      <trkpt lat="49.03773" lon="7.56014">
        <ele>278.34883237858</ele>
        <time>2020-07-06T08:58:14Z</time>
      </trkpt>
      <trkpt lat="49.03765" lon="7.5601">
        <ele>276.99559311416</ele>
        <time>2020-07-06T08:58:27Z</time>
      </trkpt>
      <trkpt lat="49.03757" lon="7.56013">
        <ele>277.02078965689</ele>
        <time>2020-07-06T08:58:42Z</time>
      </trkpt>
      <trkpt lat="49.03748" lon="7.56015">
        <ele>276.15216494535</ele>
        <time>2020-07-06T08:58:53Z</time>
      </trkpt>
      <trkpt lat="49.0374" lon="7.56016">
        <ele>277.48859242872</ele>
        <time>2020-07-06T08:59:04Z</time>
      </trkpt>
      <trkpt lat="49.03731" lon="7.56016">
        <ele>270.36635698369</ele>
        <time>2020-07-06T09:02:15Z</time>
      </trkpt>
      <trkpt lat="49.03722" lon="7.56016">
        <ele>270.5295196404</ele>
        <time>2020-07-06T09:02:26Z</time>
      </trkpt>
      <trkpt lat="49.03714" lon="7.56012">
        <ele>269.56169661422</ele>
        <time>2020-07-06T09:02:36Z</time>
      </trkpt>
      <trkpt lat="49.03706" lon="7.56014">
        <ele>269.52484277858</ele>
        <time>2020-07-06T09:02:45Z</time>
      </trkpt>
      <trkpt lat="49.03697" lon="7.56014">
        <ele>269.09987116312</ele>
        <time>2020-07-06T09:03:33Z</time>
      </trkpt>
      <trkpt lat="49.03689" lon="7.56011">
        <ele>270.86725789448</ele>
        <time>2020-07-06T09:03:45Z</time>
      </trkpt>
      <trkpt lat="49.03681" lon="7.5601">
        <ele>268.79089766812</ele>
        <time>2020-07-06T09:04:18Z</time>
      </trkpt>
      <trkpt lat="49.03673" lon="7.56005">
        <ele>265.36716013868</ele>
        <time>2020-07-06T09:04:44Z</time>
      </trkpt>
      <trkpt lat="49.03666" lon="7.55996">
        <ele>266.07284622235</ele>
        <time>2020-07-06T09:04:54Z</time>
      </trkpt>
      <trkpt lat="49.0366" lon="7.55987">
        <ele>261.85847315831</ele>
        <time>2020-07-06T09:05:05Z</time>
      </trkpt>
      <trkpt lat="49.03653" lon="7.55978">
        <ele>262.43295078593</ele>
        <time>2020-07-06T09:05:14Z</time>
      </trkpt>
      <trkpt lat="49.03646" lon="7.5597">
        <ele>260.1334135425</ele>
        <time>2020-07-06T09:05:28Z</time>
      </trkpt>
      <trkpt lat="49.03639" lon="7.55962">
        <ele>266.58669471018</ele>
        <time>2020-07-06T09:05:45Z</time>
      </trkpt>
      <trkpt lat="49.0364" lon="7.5595">
        <ele>258.51516073132</ele>
        <time>2020-07-06T09:08:22Z</time>
      </trkpt>
      <trkpt lat="49.03639" lon="7.55936">
        <ele>253.23114714726</ele>
        <time>2020-07-06T09:09:12Z</time>
      </trkpt>
      <trkpt lat="49.03636" lon="7.55925">
        <ele>253.19488535276</ele>
        <time>2020-07-06T09:09:28Z</time>
      </trkpt>
      <trkpt lat="49.03632" lon="7.55913">
        <ele>255.25890050168</ele>
        <time>2020-07-06T09:10:00Z</time>
      </trkpt>
      <trkpt lat="49.03628" lon="7.55902">
        <ele>255.75773148006</ele>
        <time>2020-07-06T09:10:22Z</time>
      </trkpt>
      <trkpt lat="49.03622" lon="7.55893">
        <ele>252.38845782758</ele>
        <time>2020-07-06T09:10:31Z</time>
      </trkpt>
      <trkpt lat="49.03617" lon="7.55885">
        <ele>249.80069525773</ele>
        <time>2020-07-06T09:10:40Z</time>
      </trkpt>
      <trkpt lat="49.03609" lon="7.55878">
        <ele>250.71704227149</ele>
        <time>2020-07-06T09:10:48Z</time>
      </trkpt>
      <trkpt lat="49.03601" lon="7.55873">
        <ele>248.29813042447</ele>
        <time>2020-07-06T09:11:43Z</time>
      </trkpt>
      <trkpt lat="49.03594" lon="7.55866">
        <ele>245.99430849857</ele>
        <time>2020-07-06T09:11:54Z</time>
      </trkpt>
      <trkpt lat="49.03586" lon="7.55863">
        <ele>245.63032360043</ele>
        <time>2020-07-06T09:12:03Z</time>
      </trkpt>
      <trkpt lat="49.03578" lon="7.55859">
        <ele>244.28625309781</ele>
        <time>2020-07-06T09:12:12Z</time>
      </trkpt>
      <trkpt lat="49.03569" lon="7.55858">
        <ele>245.48998187801</ele>
        <time>2020-07-06T09:12:22Z</time>
      </trkpt>
      <trkpt lat="49.03561" lon="7.55857">
        <ele>246.86924601816</ele>
        <time>2020-07-06T09:12:30Z</time>
      </trkpt>
      <trkpt lat="49.03553" lon="7.55858">
        <ele>248.36270635215</ele>
        <time>2020-07-06T09:12:44Z</time>
      </trkpt>
      <trkpt lat="49.03544" lon="7.55858">
        <ele>250.47003048282</ele>
        <time>2020-07-06T09:12:53Z</time>
      </trkpt>
      <trkpt lat="49.03536" lon="7.55864">
        <ele>252.45309678155</ele>
        <time>2020-07-06T09:13:14Z</time>
      </trkpt>
      <trkpt lat="49.03529" lon="7.5587">
        <ele>251.75055864604</ele>
        <time>2020-07-06T09:13:35Z</time>
      </trkpt>
      <trkpt lat="49.03521" lon="7.55863">
        <ele>253.00110181946</ele>
        <time>2020-07-06T09:14:57Z</time>
      </trkpt>
      <trkpt lat="49.03513" lon="7.55859">
        <ele>249.17028266632</ele>
        <time>2020-07-06T09:15:35Z</time>
      </trkpt>
      <trkpt lat="49.03506" lon="7.55852">
        <ele>245.81124294059</ele>
        <time>2020-07-06T09:15:45Z</time>
      </trkpt>
      <trkpt lat="49.03499" lon="7.55846">
        <ele>248.54083695404</ele>
        <time>2020-07-06T09:16:03Z</time>
      </trkpt>
      <trkpt lat="49.03492" lon="7.55838">
        <ele>249.16930387793</ele>
        <time>2020-07-06T09:16:35Z</time>
      </trkpt>
      <trkpt lat="49.03485" lon="7.55832">
        <ele>248.67023260928</ele>
        <time>2020-07-06T09:16:51Z</time>
      </trkpt>
      <trkpt lat="49.03479" lon="7.55823">
        <ele>249.01439534729</ele>
        <time>2020-07-06T09:17:01Z</time>
      </trkpt>
      <trkpt lat="49.03473" lon="7.55812">
        <ele>250.76415713209</ele>
        <time>2020-07-06T09:17:10Z</time>
      </trkpt>
      <trkpt lat="49.03467" lon="7.55802">
        <ele>252.14472012486</ele>
        <time>2020-07-06T09:17:24Z</time>
      </trkpt>
      <trkpt lat="49.0346" lon="7.55794">
        <ele>250.32066518088</ele>
        <time>2020-07-06T09:17:36Z</time>
      </trkpt>
      <trkpt lat="49.03454" lon="7.55786">
        <ele>249.33091787731</ele>
        <time>2020-07-06T09:17:48Z</time>
      </trkpt>
      <trkpt lat="49.03449" lon="7.55775">
        <ele>248.82377974878</ele>
        <time>2020-07-06T09:18:18Z</time>
      </trkpt>
      <trkpt lat="49.03441" lon="7.55768">
        <ele>246.41247108942</ele>
        <time>2020-07-06T09:18:29Z</time>
      </trkpt>
      <trkpt lat="49.03433" lon="7.55773">
        <ele>241.9979633311</ele>
        <time>2020-07-06T09:18:42Z</time>
      </trkpt>
      <trkpt lat="49.03425" lon="7.55778">
        <ele>242.95494578632</ele>
        <time>2020-07-06T09:18:56Z</time>
      </trkpt>
      <trkpt lat="49.03417" lon="7.5578">
        <ele>241.15027497924</ele>
        <time>2020-07-06T09:19:08Z</time>
      </trkpt>
      <trkpt lat="49.03409" lon="7.55785">
        <ele>241.44508261356</ele>
        <time>2020-07-06T09:19:17Z</time>
      </trkpt>
      <trkpt lat="49.034" lon="7.55788">
        <ele>241.93488074268</ele>
        <time>2020-07-06T09:19:29Z</time>
      </trkpt>
      <trkpt lat="49.03392" lon="7.55788">
        <ele>245.50881554778</ele>
        <time>2020-07-06T09:20:57Z</time>
      </trkpt>
      <trkpt lat="49.03383" lon="7.5579">
        <ele>243.03312751251</ele>
        <time>2020-07-06T09:21:19Z</time>
      </trkpt>
      <trkpt lat="49.03375" lon="7.55791">
        <ele>244.61508631163</ele>
        <time>2020-07-06T09:21:28Z</time>
      </trkpt>
      <trkpt lat="49.03367" lon="7.55794">
        <ele>243.96592969458</ele>
        <time>2020-07-06T09:21:39Z</time>
      </trkpt>
      <trkpt lat="49.03359" lon="7.55799">
        <ele>240.80741900068</ele>
        <time>2020-07-06T09:22:27Z</time>
      </trkpt>
      <trkpt lat="49.0335" lon="7.55799">
        <ele>241.45978402894</ele>
        <time>2020-07-06T09:22:40Z</time>
      </trkpt>
      <trkpt lat="49.03341" lon="7.55799">
        <ele>242.41652748765</ele>
        <time>2020-07-06T09:22:51Z</time>
      </trkpt>
      <trkpt lat="49.03332" lon="7.55799">
        <ele>243.85608763634</ele>
        <time>2020-07-06T09:23:02Z</time>
      </trkpt>
      <trkpt lat="49.03323" lon="7.55798">
        <ele>244.45932613563</ele>
        <time>2020-07-06T09:23:12Z</time>
      </trkpt>
      <trkpt lat="49.03315" lon="7.55795">
        <ele>243.40078121941</ele>
        <time>2020-07-06T09:23:35Z</time>
      </trkpt>
      <trkpt lat="49.03306" lon="7.55797">
        <ele>245.92496651588</ele>
        <time>2020-07-06T09:23:55Z</time>
      </trkpt>
      <trkpt lat="49.033" lon="7.55789">
        <ele>249.04952115815</ele>
        <time>2020-07-06T09:24:22Z</time>
      </trkpt>
      <trkpt lat="49.03308" lon="7.55784">
        <ele>264.06775099636</ele>
        <time>2020-07-06T09:26:34Z</time>
      </trkpt>
      <trkpt lat="49.03299" lon="7.55783">
        <ele>259.34497089366</ele>
        <time>2020-07-06T09:27:12Z</time>
      </trkpt>
      <trkpt lat="49.03297" lon="7.55796">
        <ele>264.24361371667</ele>
        <time>2020-07-06T09:27:46Z</time>
      </trkpt>
      <trkpt lat="49.03306" lon="7.55797">
        <ele>268.38676900138</ele>
        <time>2020-07-06T09:28:51Z</time>
      </trkpt>
      <trkpt lat="49.03315" lon="7.55797">
        <ele>247.42231603746</ele>
        <time>2020-07-06T09:30:29Z</time>
      </trkpt>
      <trkpt lat="49.03324" lon="7.55797">
        <ele>241.62769962769</ele>
        <time>2020-07-06T09:30:48Z</time>
      </trkpt>
      <trkpt lat="49.03332" lon="7.55798">
        <ele>244.09577449119</ele>
        <time>2020-07-06T09:31:06Z</time>
      </trkpt>
      <trkpt lat="49.0334" lon="7.55796">
        <ele>246.84527573796</ele>
        <time>2020-07-06T09:31:16Z</time>
      </trkpt>
      <trkpt lat="49.03348" lon="7.55797">
        <ele>246.04641602223</ele>
        <time>2020-07-06T09:31:25Z</time>
      </trkpt>
      <trkpt lat="49.03356" lon="7.55798">
        <ele>250.81090741605</ele>
        <time>2020-07-06T09:31:30Z</time>
      </trkpt>
      <trkpt lat="49.03364" lon="7.55796">
        <ele>252.42781784503</ele>
        <time>2020-07-06T09:31:38Z</time>
      </trkpt>
      <trkpt lat="49.03373" lon="7.55793">
        <ele>246.25049556549</ele>
        <time>2020-07-06T09:31:53Z</time>
      </trkpt>
      <trkpt lat="49.03381" lon="7.55797">
        <ele>241.46652143844</ele>
        <time>2020-07-06T09:32:11Z</time>
      </trkpt>
      <trkpt lat="49.03389" lon="7.55793">
        <ele>242.46679849544</ele>
        <time>2020-07-06T09:32:23Z</time>
      </trkpt>
      <trkpt lat="49.03397" lon="7.55789">
        <ele>243.79287859457</ele>
        <time>2020-07-06T09:32:51Z</time>
      </trkpt>
      <trkpt lat="49.03406" lon="7.55787">
        <ele>246.49534648734</ele>
        <time>2020-07-06T09:33:00Z</time>
      </trkpt>
      <trkpt lat="49.03414" lon="7.55784">
        <ele>247.04588058793</ele>
        <time>2020-07-06T09:33:12Z</time>
      </trkpt>
      <trkpt lat="49.03423" lon="7.55781">
        <ele>245.61755264527</ele>
        <time>2020-07-06T09:33:23Z</time>
      </trkpt>
      <trkpt lat="49.03431" lon="7.55779">
        <ele>245.99264557117</ele>
        <time>2020-07-06T09:33:34Z</time>
      </trkpt>
      <trkpt lat="49.03439" lon="7.55774">
        <ele>244.67720489848</ele>
        <time>2020-07-06T09:33:45Z</time>
      </trkpt>
      <trkpt lat="49.03441" lon="7.5576">
        <ele>248.94845582949</ele>
        <time>2020-07-06T09:34:17Z</time>
      </trkpt>
      <trkpt lat="49.03437" lon="7.55748">
        <ele>251.18819269432</ele>
        <time>2020-07-06T09:34:44Z</time>
      </trkpt>
      <trkpt lat="49.03442" lon="7.55739">
        <ele>251.27398885964</ele>
        <time>2020-07-06T09:34:55Z</time>
      </trkpt>
      <trkpt lat="49.03446" lon="7.5573">
        <ele>250.85758844658</ele>
        <time>2020-07-06T09:35:03Z</time>
      </trkpt>
      <trkpt lat="49.0345" lon="7.5572">
        <ele>249.72034202859</ele>
        <time>2020-07-06T09:35:11Z</time>
      </trkpt>
      <trkpt lat="49.03455" lon="7.55709">
        <ele>249.38614159652</ele>
        <time>2020-07-06T09:35:21Z</time>
      </trkpt>
      <trkpt lat="49.0346" lon="7.55699">
        <ele>247.40904514956</ele>
        <time>2020-07-06T09:35:30Z</time>
      </trkpt>
      <trkpt lat="49.03465" lon="7.55688">
        <ele>245.59087785347</ele>
        <time>2020-07-06T09:36:00Z</time>
      </trkpt>
      <trkpt lat="49.03469" lon="7.55677">
        <ele>247.88136569132</ele>
        <time>2020-07-06T09:36:08Z</time>
      </trkpt>
      <trkpt lat="49.03474" lon="7.55667">
        <ele>249.3493405663</ele>
        <time>2020-07-06T09:36:20Z</time>
      </trkpt>
      <trkpt lat="49.03478" lon="7.55656">
        <ele>247.11436133672</ele>
        <time>2020-07-06T09:38:14Z</time>
      </trkpt>
      <trkpt lat="49.03482" lon="7.55644">
        <ele>245.35911281927</ele>
        <time>2020-07-06T09:38:22Z</time>
      </trkpt>
      <trkpt lat="49.03485" lon="7.55632">
        <ele>247.81671849976</ele>
        <time>2020-07-06T09:38:34Z</time>
      </trkpt>
      <trkpt lat="49.0349" lon="7.55621">
        <ele>249.29732521926</ele>
        <time>2020-07-06T09:38:44Z</time>
      </trkpt>
      <trkpt lat="49.03493" lon="7.55608">
        <ele>248.08850195284</ele>
        <time>2020-07-06T09:38:55Z</time>
      </trkpt>
      <trkpt lat="49.03494" lon="7.55596">
        <ele>247.71050742544</ele>
        <time>2020-07-06T09:39:06Z</time>
      </trkpt>
      <trkpt lat="49.03498" lon="7.55585">
        <ele>242.52270136621</ele>
        <time>2020-07-06T09:39:17Z</time>
      </trkpt>
      <trkpt lat="49.03502" lon="7.55573">
        <ele>245.29728976662</ele>
        <time>2020-07-06T09:39:26Z</time>
      </trkpt>
      <trkpt lat="49.03507" lon="7.55563">
        <ele>245.29663882691</ele>
        <time>2020-07-06T09:39:35Z</time>
      </trkpt>
      <trkpt lat="49.03512" lon="7.55551">
        <ele>247.71600498939</ele>
        <time>2020-07-06T09:39:47Z</time>
      </trkpt>
      <trkpt lat="49.03517" lon="7.55541">
        <ele>244.35293460901</ele>
        <time>2020-07-06T09:40:02Z</time>
      </trkpt>
      <trkpt lat="49.03518" lon="7.55528">
        <ele>243.4988485682</ele>
        <time>2020-07-06T09:40:13Z</time>
      </trkpt>
      <trkpt lat="49.03523" lon="7.55517">
        <ele>246.45349565727</ele>
        <time>2020-07-06T09:40:37Z</time>
      </trkpt>
      <trkpt lat="49.03515" lon="7.55513">
        <ele>250.89824287546</ele>
        <time>2020-07-06T09:41:02Z</time>
      </trkpt>
      <trkpt lat="49.03517" lon="7.55499">
        <ele>254.44201831209</ele>
        <time>2020-07-06T09:41:50Z</time>
      </trkpt>
      <trkpt lat="49.03523" lon="7.5549">
        <ele>253.01214253498</ele>
        <time>2020-07-06T09:42:27Z</time>
      </trkpt>
      <trkpt lat="49.03527" lon="7.55479">
        <ele>255.15216847198</ele>
        <time>2020-07-06T09:42:51Z</time>
      </trkpt>
      <trkpt lat="49.03532" lon="7.55469">
        <ele>255.05471676411</ele>
        <time>2020-07-06T09:43:04Z</time>
      </trkpt>
      <trkpt lat="49.03539" lon="7.5546">
        <ele>251.33567566721</ele>
        <time>2020-07-06T09:43:24Z</time>
      </trkpt>
      <trkpt lat="49.03545" lon="7.55451">
        <ele>248.69004526695</ele>
        <time>2020-07-06T09:43:40Z</time>
      </trkpt>
      <trkpt lat="49.03549" lon="7.55439">
        <ele>244.81698705095</ele>
        <time>2020-07-06T09:43:52Z</time>
      </trkpt>
      <trkpt lat="49.03553" lon="7.55427">
        <ele>246.44074124471</ele>
        <time>2020-07-06T09:44:02Z</time>
      </trkpt>
      <trkpt lat="49.03556" lon="7.55415">
        <ele>251.21641317475</ele>
        <time>2020-07-06T09:44:14Z</time>
      </trkpt>
      <trkpt lat="49.0356" lon="7.55403">
        <ele>253.35878775255</ele>
        <time>2020-07-06T09:44:24Z</time>
      </trkpt>
      <trkpt lat="49.03565" lon="7.55393">
        <ele>250.71143569785</ele>
        <time>2020-07-06T09:44:32Z</time>
      </trkpt>
      <trkpt lat="49.03571" lon="7.55383">
        <ele>251.73938967046</ele>
        <time>2020-07-06T09:44:40Z</time>
      </trkpt>
      <trkpt lat="49.03577" lon="7.55374">
        <ele>252.67602274557</ele>
        <time>2020-07-06T09:44:49Z</time>
      </trkpt>
      <trkpt lat="49.03584" lon="7.55367">
        <ele>249.3312252887</ele>
        <time>2020-07-06T09:44:58Z</time>
      </trkpt>
      <trkpt lat="49.0359" lon="7.55358">
        <ele>249.77326016547</ele>
        <time>2020-07-06T09:45:05Z</time>
      </trkpt>
      <trkpt lat="49.03596" lon="7.55349">
        <ele>250.27926752441</ele>
        <time>2020-07-06T09:45:13Z</time>
      </trkpt>
      <trkpt lat="49.03604" lon="7.55344">
        <ele>248.77741535995</ele>
        <time>2020-07-06T09:45:22Z</time>
      </trkpt>
      <trkpt lat="49.03612" lon="7.5534">
        <ele>246.47118445623</ele>
        <time>2020-07-06T09:45:31Z</time>
      </trkpt>
      <trkpt lat="49.03619" lon="7.55335">
        <ele>247.15016587249</ele>
        <time>2020-07-06T09:45:38Z</time>
      </trkpt>
      <trkpt lat="49.03626" lon="7.5533">
        <ele>246.69704657025</ele>
        <time>2020-07-06T09:45:47Z</time>
      </trkpt>
      <trkpt lat="49.03633" lon="7.55322">
        <ele>248.9566561193</ele>
        <time>2020-07-06T09:45:57Z</time>
      </trkpt>
      <trkpt lat="49.03639" lon="7.55312">
        <ele>247.32322541103</ele>
        <time>2020-07-06T09:46:07Z</time>
      </trkpt>
      <trkpt lat="49.03647" lon="7.55307">
        <ele>246.07097524576</ele>
        <time>2020-07-06T09:46:24Z</time>
      </trkpt>
      <trkpt lat="49.03654" lon="7.55302">
        <ele>247.47470406001</ele>
        <time>2020-07-06T09:46:35Z</time>
      </trkpt>
      <trkpt lat="49.03661" lon="7.55293">
        <ele>248.50469814068</ele>
        <time>2020-07-06T09:46:47Z</time>
      </trkpt>
      <trkpt lat="49.03667" lon="7.55285">
        <ele>250.10397811899</ele>
        <time>2020-07-06T09:47:01Z</time>
      </trkpt>
      <trkpt lat="49.03675" lon="7.55281">
        <ele>247.61806384578</ele>
        <time>2020-07-06T09:47:12Z</time>
      </trkpt>
      <trkpt lat="49.03682" lon="7.55275">
        <ele>247.47984540953</ele>
        <time>2020-07-06T09:47:20Z</time>
      </trkpt>
      <trkpt lat="49.03689" lon="7.55268">
        <ele>249.90875330529</ele>
        <time>2020-07-06T09:47:29Z</time>
      </trkpt>
      <trkpt lat="49.03695" lon="7.5526">
        <ele>256.33236442665</ele>
        <time>2020-07-06T09:47:36Z</time>
      </trkpt>
      <trkpt lat="49.03703" lon="7.55254">
        <ele>254.14495719481</ele>
        <time>2020-07-06T09:47:46Z</time>
      </trkpt>
      <trkpt lat="49.03711" lon="7.55251">
        <ele>250.98853276198</ele>
        <time>2020-07-06T09:47:58Z</time>
      </trkpt>
      <trkpt lat="49.03718" lon="7.55244">
        <ele>250.03004978434</ele>
        <time>2020-07-06T09:48:08Z</time>
      </trkpt>
      <trkpt lat="49.03725" lon="7.55239">
        <ele>250.05881042236</ele>
        <time>2020-07-06T09:48:17Z</time>
      </trkpt>
      <trkpt lat="49.03734" lon="7.55236">
        <ele>248.20014028267</ele>
        <time>2020-07-06T09:48:29Z</time>
      </trkpt>
      <trkpt lat="49.03742" lon="7.5523">
        <ele>247.04190287567</ele>
        <time>2020-07-06T09:48:41Z</time>
      </trkpt>
      <trkpt lat="49.03747" lon="7.55221">
        <ele>248.40374600042</ele>
        <time>2020-07-06T09:48:49Z</time>
      </trkpt>
      <trkpt lat="49.03755" lon="7.55216">
        <ele>248.23081971635</ele>
        <time>2020-07-06T09:48:58Z</time>
      </trkpt>
      <trkpt lat="49.03762" lon="7.55208">
        <ele>247.72030476891</ele>
        <time>2020-07-06T09:49:08Z</time>
      </trkpt>
      <trkpt lat="49.03769" lon="7.55201">
        <ele>245.63890526722</ele>
        <time>2020-07-06T09:49:17Z</time>
      </trkpt>
      <trkpt lat="49.03776" lon="7.55193">
        <ele>243.24935085456</ele>
        <time>2020-07-06T09:49:27Z</time>
      </trkpt>
      <trkpt lat="49.03783" lon="7.55187">
        <ele>241.77104421898</ele>
        <time>2020-07-06T09:49:36Z</time>
      </trkpt>
      <trkpt lat="49.03791" lon="7.55179">
        <ele>243.01693592907</ele>
        <time>2020-07-06T09:49:45Z</time>
      </trkpt>
      <trkpt lat="49.03799" lon="7.55175">
        <ele>243.12415129405</ele>
        <time>2020-07-06T09:49:53Z</time>
      </trkpt>
      <trkpt lat="49.03806" lon="7.55168">
        <ele>245.31489808687</ele>
        <time>2020-07-06T09:50:36Z</time>
      </trkpt>
      <trkpt lat="49.03813" lon="7.55159">
        <ele>243.20956167978</ele>
        <time>2020-07-06T09:50:49Z</time>
      </trkpt>
      <trkpt lat="49.03821" lon="7.55156">
        <ele>247.1530031615</ele>
        <time>2020-07-06T09:50:58Z</time>
      </trkpt>
      <trkpt lat="49.03828" lon="7.5515">
        <ele>247.56287313985</ele>
        <time>2020-07-06T09:51:07Z</time>
      </trkpt>
      <trkpt lat="49.03835" lon="7.55141">
        <ele>247.25931172612</ele>
        <time>2020-07-06T09:51:22Z</time>
      </trkpt>
      <trkpt lat="49.03841" lon="7.55132">
        <ele>247.24941589086</ele>
        <time>2020-07-06T09:51:33Z</time>
      </trkpt>
      <trkpt lat="49.03848" lon="7.55123">
        <ele>247.21987935993</ele>
        <time>2020-07-06T09:51:44Z</time>
      </trkpt>
      <trkpt lat="49.03854" lon="7.55113">
        <ele>243.90918951877</ele>
        <time>2020-07-06T09:51:58Z</time>
      </trkpt>
      <trkpt lat="49.03859" lon="7.55101">
        <ele>244.82575622668</ele>
        <time>2020-07-06T09:52:12Z</time>
      </trkpt>
      <trkpt lat="49.03863" lon="7.5509">
        <ele>239.07679108968</ele>
        <time>2020-07-06T09:52:27Z</time>
      </trkpt>
      <trkpt lat="49.0387" lon="7.55083">
        <ele>241.33980917827</ele>
        <time>2020-07-06T09:52:36Z</time>
      </trkpt>
      <trkpt lat="49.03875" lon="7.55072">
        <ele>241.98223512733</ele>
        <time>2020-07-06T09:52:51Z</time>
      </trkpt>
      <trkpt lat="49.03882" lon="7.55066">
        <ele>243.72792160048</ele>
        <time>2020-07-06T09:52:59Z</time>
      </trkpt>
      <trkpt lat="49.03889" lon="7.55058">
        <ele>246.62557239762</ele>
        <time>2020-07-06T09:53:09Z</time>
      </trkpt>
      <trkpt lat="49.03893" lon="7.55052">
        <ele>248.66790995006</ele>
        <time>2020-07-06T09:53:28Z</time>
      </trkpt>
      <trkpt lat="49.03893" lon="7.55052">
        <ele>248.66790995006</ele>
        <time>2020-07-06T09:53:28Z</time>
      </trkpt>
    </trkseg>
  </trk>
</gpx>